Time;durP1;ratioP1;P1;durP2;ratioP2;P2;SDS_P1;SDS_P2;PMS_P1;PMS_P2;Temp;Humidity;BMP_temperature;BMP_pressure;BME280_temperature;BME280_humidity;BME280_pressure;Samples;Min_cycle;Max_cycle;Signal;HPM_P1;HPM_P2
2021/05/28 00:00:14;;;;;;;17.13;14.50;;;9.00;99.90;;;;;;5021070;28;20205;-83
2021/05/28 00:03:02;;;;;;;16.17;13.27;;;9.00;99.90;;;;;;5031974;28;20267;-83
2021/05/28 00:05:30;;;;;;;15.27;13.73;;;9.10;99.90;;;;;;5039204;28;20226;-83
2021/05/28 00:08:00;;;;;;;14.43;12.93;;;9.10;99.90;;;;;;5022509;28;20213;-83
2021/05/28 00:10:28;;;;;;;15.43;13.80;;;9.10;99.90;;;;;;5021849;28;20257;-84
2021/05/28 00:12:57;;;;;;;15.80;14.10;;;9.00;99.90;;;;;;5025508;28;20207;-83
2021/05/28 00:15:25;;;;;;;17.20;13.60;;;9.00;99.90;;;;;;5029825;28;20238;-85
2021/05/28 00:17:54;;;;;;;14.57;13.13;;;8.90;99.90;;;;;;5026214;28;20915;-83
2021/05/28 00:20:24;;;;;;;17.90;13.43;;;9.00;99.90;;;;;;5041551;28;20375;-83
2021/05/28 00:22:53;;;;;;;15.40;13.80;;;8.90;99.90;;;;;;5043061;28;20280;-84
2021/05/28 00:25:22;;;;;;;15.27;13.47;;;8.80;99.90;;;;;;5045519;28;20203;-84
2021/05/28 00:27:50;;;;;;;15.10;13.47;;;8.70;99.90;;;;;;5040787;28;20200;-85
2021/05/28 00:30:19;;;;;;;17.30;13.10;;;8.80;99.90;;;;;;5042884;28;20204;-84
2021/05/28 00:32:48;;;;;;;14.73;13.17;;;8.70;99.90;;;;;;5040078;28;20301;-85
2021/05/28 00:35:17;;;;;;;14.40;12.87;;;8.90;99.90;;;;;;5044695;28;20216;-81
2021/05/28 00:37:46;;;;;;;15.10;13.60;;;8.80;99.90;;;;;;5036365;28;20314;-83
2021/05/28 00:40:16;;;;;;;18.27;13.70;;;8.80;99.90;;;;;;5032559;28;20227;-83
2021/05/28 00:42:46;;;;;;;17.17;12.80;;;8.80;99.90;;;;;;5031553;28;21282;-84
2021/05/28 00:45:15;;;;;;;14.57;12.63;;;8.60;99.90;;;;;;5037502;28;20266;-84
2021/05/28 00:47:44;;;;;;;16.33;12.57;;;8.60;99.90;;;;;;5028804;28;20221;-84
2021/05/28 00:50:13;;;;;;;14.93;12.17;;;8.50;99.90;;;;;;5033932;28;20260;-84
2021/05/28 00:52:41;;;;;;;14.80;13.20;;;8.40;99.90;;;;;;5037297;28;20213;-85
2021/05/28 00:55:11;;;;;;;15.47;12.73;;;8.40;99.90;;;;;;5034561;28;20410;-85
2021/05/28 00:57:39;;;;;;;15.87;12.23;;;8.50;99.90;;;;;;5028645;28;20237;-83
2021/05/28 01:00:09;;;;;;;14.83;13.23;;;8.40;99.90;;;;;;5029656;28;20283;-84
2021/05/28 01:02:38;;;;;;;18.00;13.07;;;8.30;99.90;;;;;;5033042;28;20978;-83
2021/05/28 01:05:10;;;;;;;14.93;13.43;;;8.20;99.90;;;;;;5037109;28;20210;-82
2021/05/28 01:07:38;;;;;;;16.33;14.10;;;8.20;99.90;;;;;;5040280;28;20268;-84
2021/05/28 01:10:08;;;;;;;21.23;15.70;;;8.20;99.90;;;;;;5014726;28;20223;-82
2021/05/28 01:12:36;;;;;;;17.60;15.03;;;8.30;99.90;;;;;;5043593;28;20190;-83
2021/05/28 01:15:06;;;;;;;19.07;16.07;;;8.30;99.90;;;;;;5047347;28;20204;-83
2021/05/28 01:17:35;;;;;;;18.30;15.30;;;8.40;99.90;;;;;;5045804;28;20592;-84
2021/05/28 01:20:05;;;;;;;20.43;15.43;;;8.50;99.90;;;;;;5042376;28;20183;-83
2021/05/28 01:22:35;;;;;;;17.80;15.20;;;8.60;99.90;;;;;;5045958;28;20427;-84
2021/05/28 01:25:04;;;;;;;16.60;14.77;;;8.60;99.90;;;;;;5042417;28;20451;-83
2021/05/28 01:27:32;;;;;;;20.80;16.40;;;8.50;99.90;;;;;;5043732;28;20246;-82
2021/05/28 01:30:00;;;;;;;18.67;15.67;;;8.50;99.90;;;;;;5041014;28;20228;-83
2021/05/28 01:32:28;;;;;;;20.53;17.77;;;8.60;99.90;;;;;;5044595;28;20187;-83
2021/05/28 01:34:57;;;;;;;18.80;16.30;;;8.60;99.90;;;;;;5044236;28;20196;-83
2021/05/28 01:37:25;;;;;;;22.67;19.13;;;8.60;99.90;;;;;;5019292;28;20239;-83
2021/05/28 01:39:54;;;;;;;20.03;17.93;;;8.70;99.90;;;;;;5020817;28;20209;-82
2021/05/28 01:42:22;;;;;;;21.93;19.63;;;9.00;99.90;;;;;;5029554;28;20208;-82
2021/05/28 01:44:53;;;;;;;25.53;20.53;;;8.90;99.90;;;;;;5022059;28;20210;-82
2021/05/28 01:47:21;;;;;;;24.40;19.70;;;8.90;99.90;;;;;;5024071;28;20233;-83
2021/05/28 01:49:50;;;;;;;27.30;21.40;;;8.90;99.90;;;;;;5027537;28;20209;-85
2021/05/28 01:52:19;;;;;;;23.60;20.87;;;8.90;99.90;;;;;;5031683;28;20225;-84
2021/05/28 01:54:47;;;;;;;26.07;21.53;;;9.00;99.90;;;;;;5028216;28;21413;-83
2021/05/28 01:57:17;;;;;;;26.43;21.87;;;9.00;99.90;;;;;;5035507;28;20243;-84
2021/05/28 01:59:45;;;;;;;26.27;21.70;;;9.00;99.90;;;;;;5005801;28;20589;-84
2021/05/28 02:02:14;;;;;;;27.07;22.13;;;9.00;99.90;;;;;;5025177;28;20205;-83
2021/05/28 02:04:43;;;;;;;23.97;20.97;;;9.10;99.90;;;;;;5027637;28;20206;-83
2021/05/28 02:07:11;;;;;;;24.90;22.20;;;9.00;99.90;;;;;;5022278;28;20218;-81
2021/05/28 02:09:40;;;;;;;26.07;21.43;;;9.10;99.90;;;;;;5022434;28;20757;-84
2021/05/28 02:12:09;;;;;;;25.33;20.20;;;9.20;99.90;;;;;;5024638;28;20212;-83
2021/05/28 02:14:38;;;;;;;25.17;20.87;;;9.10;99.90;;;;;;5040911;28;20253;-84
2021/05/28 02:17:07;;;;;;;25.20;21.20;;;9.20;99.90;;;;;;5025735;28;20209;-83
2021/05/28 02:19:35;;;;;;;24.77;20.57;;;9.10;99.90;;;;;;5023555;28;20611;-84
2021/05/28 02:22:03;;;;;;;26.40;20.93;;;9.10;99.90;;;;;;5030754;28;20201;-84
2021/05/28 02:24:31;;;;;;;22.90;20.43;;;9.10;99.90;;;;;;5010283;28;20213;-84
2021/05/28 02:27:00;;;;;;;26.67;21.00;;;9.10;99.90;;;;;;5022522;28;20542;-83
2021/05/28 02:29:28;;;;;;;28.27;21.73;;;9.20;99.90;;;;;;5003250;28;20312;-85
2021/05/28 02:31:58;;;;;;;25.70;21.07;;;9.30;99.90;;;;;;5021780;28;20904;-85
2021/05/28 02:34:29;;;;;;;24.03;21.50;;;9.20;99.90;;;;;;5023344;28;20232;-83
2021/05/28 02:36:57;;;;;;;24.10;20.10;;;9.20;99.90;;;;;;5029822;28;20193;-84
2021/05/28 02:39:25;;;;;;;23.70;20.20;;;9.20;99.90;;;;;;5030765;28;20224;-84
2021/05/28 02:41:53;;;;;;;25.07;21.07;;;9.20;99.90;;;;;;5046684;28;20202;-83
2021/05/28 02:44:22;;;;;;;21.77;19.23;;;9.30;99.90;;;;;;5034198;28;20201;-83
2021/05/28 02:46:50;;;;;;;22.40;19.93;;;9.40;99.90;;;;;;5038280;28;20217;-84
2021/05/28 02:49:19;;;;;;;22.37;19.87;;;9.50;99.90;;;;;;5031197;28;20312;-83
2021/05/28 02:51:47;;;;;;;23.13;19.47;;;9.60;99.90;;;;;;5027482;28;20205;-83
2021/05/28 02:54:16;;;;;;;23.20;19.07;;;9.60;99.90;;;;;;5027844;28;20284;-83
2021/05/28 02:56:44;;;;;;;20.30;17.93;;;9.70;99.90;;;;;;5021771;28;20212;-83
2021/05/28 02:59:13;;;;;;;22.27;19.03;;;9.70;99.90;;;;;;5025052;28;20349;-86
2021/05/28 03:01:41;;;;;;;19.60;17.53;;;9.90;99.90;;;;;;5031055;28;21124;-84
2021/05/28 03:04:10;;;;;;;21.93;18.07;;;9.90;99.90;;;;;;5026162;28;20202;-83
2021/05/28 03:06:39;;;;;;;22.13;17.27;;;10.00;99.90;;;;;;5025002;28;20259;-83
2021/05/28 03:09:07;;;;;;;19.13;17.10;;;10.20;99.90;;;;;;5021915;28;20197;-83
2021/05/28 03:11:36;;;;;;;18.40;15.73;;;10.30;99.90;;;;;;5025683;28;20448;-84
2021/05/28 03:14:05;;;;;;;18.27;15.07;;;10.50;99.90;;;;;;5023821;28;20555;-84
2021/05/28 03:16:33;;;;;;;17.07;15.00;;;10.60;99.90;;;;;;5024548;28;20241;-83
2021/05/28 03:19:06;;;;;;;16.60;14.73;;;10.90;99.10;;;;;;5037102;28;20236;-84
2021/05/28 03:22:30;;;;;;;16.43;14.10;;;11.10;98.50;;;;;;5037611;28;20190;-85
2021/05/28 03:24:27;;;;;;;15.70;14.00;;;11.30;98.00;;;;;;5038685;28;20207;-83
2021/05/28 03:26:56;;;;;;;14.93;13.23;;;11.50;96.30;;;;;;5033540;28;20203;-86
2021/05/28 03:29:25;;;;;;;14.50;12.90;;;11.70;94.80;;;;;;5034549;28;20199;-85
2021/05/28 03:31:54;;;;;;;14.23;12.37;;;11.80;93.30;;;;;;5033171;28;20207;-83
2021/05/28 03:34:22;;;;;;;14.17;12.70;;;12.10;92.90;;;;;;5038329;28;20625;-85
2021/05/28 03:36:51;;;;;;;13.77;12.37;;;12.20;92.10;;;;;;5036452;28;20656;-84
2021/05/28 03:39:19;;;;;;;12.90;11.60;;;12.40;91.70;;;;;;5027142;28;20237;-83
2021/05/28 03:41:48;;;;;;;14.10;12.37;;;12.50;91.20;;;;;;5029268;28;20214;-83
2021/05/28 03:44:17;;;;;;;12.23;10.93;;;12.60;91.00;;;;;;5024508;28;20202;-83
2021/05/28 03:46:45;;;;;;;12.07;10.83;;;12.70;90.50;;;;;;5026719;28;20226;-83
2021/05/28 03:49:13;;;;;;;12.50;11.20;;;12.80;90.30;;;;;;5028603;28;20197;-83
2021/05/28 03:51:42;;;;;;;11.10;10.00;;;12.80;90.30;;;;;;5040148;28;20198;-83
2021/05/28 03:54:10;;;;;;;11.93;10.73;;;12.90;90.10;;;;;;5037252;28;20252;-84
2021/05/28 03:56:39;;;;;;;11.87;10.13;;;13.00;90.10;;;;;;5035005;28;20203;-84
2021/05/28 03:59:08;;;;;;;10.53;9.47;;;13.10;89.90;;;;;;5018351;28;20234;-84
2021/05/28 04:01:37;;;;;;;11.53;10.33;;;13.10;89.90;;;;;;5038048;28;20212;-85
2021/05/28 04:04:06;;;;;;;11.67;9.93;;;13.20;89.70;;;;;;5034860;28;20213;-84
2021/05/28 04:06:34;;;;;;;10.93;9.83;;;13.40;89.30;;;;;;5032919;28;20314;-85
2021/05/28 04:09:05;;;;;;;11.20;10.10;;;13.50;88.40;;;;;;5035972;28;20423;-84
2021/05/28 04:11:34;;;;;;;10.80;9.80;;;13.40;88.00;;;;;;5030969;28;20256;-85
2021/05/28 04:14:03;;;;;;;11.27;9.93;;;13.30;88.30;;;;;;5029246;28;20215;-84
2021/05/28 04:16:37;;;;;;;11.40;10.20;;;13.30;88.70;;;;;;5034245;28;20261;-85
2021/05/28 04:19:09;;;;;;;11.20;10.00;;;13.20;88.90;;;;;;5033702;28;20282;-83
2021/05/28 04:21:42;;;;;;;11.63;10.00;;;13.20;89.30;;;;;;5044454;28;20266;-84
2021/05/28 04:24:14;;;;;;;10.50;9.30;;;13.20;89.10;;;;;;5039671;28;20945;-84
2021/05/28 04:26:42;;;;;;;10.93;9.70;;;13.20;88.70;;;;;;5042253;28;20207;-83
2021/05/28 04:29:11;;;;;;;10.63;9.60;;;13.10;88.70;;;;;;5035404;28;20301;-84
2021/05/28 04:31:42;;;;;;;11.13;9.63;;;13.10;89.30;;;;;;5038826;28;20210;-84
2021/05/28 04:34:11;;;;;;;10.47;9.47;;;13.10;89.50;;;;;;5037576;28;20312;-84
2021/05/28 04:36:40;;;;;;;11.47;10.27;;;13.10;89.20;;;;;;5024883;28;20194;-84
2021/05/28 04:39:08;;;;;;;10.07;9.07;;;13.00;89.30;;;;;;5045757;28;20241;-83
2021/05/28 04:41:36;;;;;;;10.67;9.67;;;12.90;89.40;;;;;;5046450;28;20233;-85
2021/05/28 04:44:05;;;;;;;11.07;9.87;;;13.10;89.80;;;;;;5047742;28;20209;-86
2021/05/28 04:46:34;;;;;;;12.77;10.00;;;13.00;89.80;;;;;;5044379;28;20210;-83
2021/05/28 04:49:04;;;;;;;10.00;9.00;;;13.00;90.00;;;;;;5021532;28;21080;-85
2021/05/28 04:51:32;;;;;;;10.07;9.07;;;13.10;90.00;;;;;;5034438;28;20203;-85
2021/05/28 04:54:03;;;;;;;9.47;8.67;;;13.10;89.50;;;;;;5027689;28;20278;-84
2021/05/28 04:56:31;;;;;;;10.27;9.27;;;13.10;89.80;;;;;;5034875;28;20518;-85
2021/05/28 04:59:00;;;;;;;9.90;8.90;;;13.20;89.00;;;;;;5032374;28;20338;-83
2021/05/28 05:01:29;;;;;;;10.50;9.20;;;13.20;88.50;;;;;;5048504;28;20205;-86
2021/05/28 05:03:58;;;;;;;10.17;9.00;;;13.30;88.40;;;;;;5026075;28;20237;-84
2021/05/28 05:06:27;;;;;;;9.57;8.67;;;13.30;88.60;;;;;;5044397;28;20224;-86
2021/05/28 05:08:55;;;;;;;10.50;9.30;;;13.20;88.00;;;;;;5023110;28;20218;-85
2021/05/28 05:11:24;;;;;;;9.77;8.77;;;13.30;88.40;;;;;;5021980;28;20261;-85
2021/05/28 05:13:52;;;;;;;15.27;9.17;;;13.40;88.10;;;;;;5011172;28;20207;-85
2021/05/28 05:16:25;;;;;;;9.23;8.33;;;13.50;88.40;;;;;;5023698;28;20203;-85
2021/05/28 05:19:11;;;;;;;13.33;9.43;;;13.70;88.60;;;;;;5003071;28;20249;-82
2021/05/28 05:21:41;;;;;;;9.10;8.27;;;14.10;88.40;;;;;;5023916;28;20219;-84
2021/05/28 05:24:11;;;;;;;9.50;8.23;;;14.00;87.20;;;;;;5022115;28;20887;-83
2021/05/28 05:26:40;;;;;;;9.73;8.73;;;14.10;86.90;;;;;;5028421;28;20424;-86
2021/05/28 05:29:09;;;;;;;9.17;8.27;;;14.10;86.80;;;;;;5029735;28;20198;-84
2021/05/28 05:31:39;;;;;;;9.57;8.57;;;14.10;86.70;;;;;;5032794;28;20459;-85
2021/05/28 05:34:08;;;;;;;11.13;8.77;;;14.20;86.60;;;;;;5026269;28;20206;-83
2021/05/28 05:36:40;;;;;;;9.07;8.13;;;14.30;86.40;;;;;;5007228;28;20209;-85
2021/05/28 05:39:09;;;;;;;10.03;8.80;;;14.30;86.40;;;;;;5022321;28;20361;-87
2021/05/28 05:41:38;;;;;;;10.30;9.10;;;14.40;86.40;;;;;;5029897;28;20841;-84
2021/05/28 05:44:07;;;;;;;9.17;8.27;;;14.50;86.20;;;;;;5009189;28;20207;-85
2021/05/28 05:46:36;;;;;;;9.93;8.10;;;14.70;86.30;;;;;;5021912;28;20218;-85
2021/05/28 05:49:10;;;;;;;9.43;8.53;;;14.90;85.60;;;;;;5015358;28;20206;-85
2021/05/28 05:51:41;;;;;;;9.70;8.80;;;14.90;85.60;;;;;;5016353;28;21345;-86
2021/05/28 05:54:13;;;;;;;11.70;8.87;;;15.10;85.00;;;;;;5031340;28;20201;-85
2021/05/28 05:56:42;;;;;;;9.27;8.37;;;15.10;85.00;;;;;;5024691;28;20286;-84
2021/05/28 05:59:13;;;;;;;9.97;8.70;;;15.20;85.00;;;;;;5015684;28;20235;-85
2021/05/28 06:01:41;;;;;;;9.37;8.37;;;15.30;85.10;;;;;;5025768;28;20208;-87
2021/05/28 06:04:12;;;;;;;10.87;8.43;;;15.30;85.00;;;;;;5029736;28;20228;-84
2021/05/28 06:13:02;;;;;;;9.67;8.67;;;15.90;84.10;;;;;;5979506;23;21856;-88
2021/05/28 06:15:31;;;;;;;12.47;9.37;;;15.80;83.90;;;;;;4911679;29;20222;-86
2021/05/28 06:18:02;;;;;;;10.30;9.37;;;15.70;83.70;;;;;;4909409;29;20842;-86
2021/05/28 06:20:31;;;;;;;10.73;9.20;;;15.60;84.10;;;;;;4915512;29;20245;-84
2021/05/28 06:23:00;;;;;;;10.47;9.47;;;15.60;84.20;;;;;;4913018;29;21057;-84
2021/05/28 06:25:32;;;;;;;11.80;9.20;;;15.60;84.40;;;;;;4917042;29;20210;-84
2021/05/28 06:28:01;;;;;;;9.03;8.20;;;15.80;84.50;;;;;;4912460;29;20387;-84
2021/05/28 06:30:30;;;;;;;9.90;8.40;;;16.10;84.40;;;;;;4906684;28;20214;-85
2021/05/28 06:33:01;;;;;;;9.30;8.37;;;16.40;83.40;;;;;;4920598;28;20221;-83
2021/05/28 06:35:30;;;;;;;9.30;8.27;;;16.60;83.20;;;;;;4893846;29;20513;-85
2021/05/28 06:37:59;;;;;;;11.10;8.70;;;16.80;83.20;;;;;;4894385;29;20241;-84
2021/05/28 06:40:27;;;;;;;8.47;7.63;;;16.90;83.10;;;;;;4900819;29;20392;-83
2021/05/28 06:42:55;;;;;;;8.20;7.40;;;17.10;82.90;;;;;;4900705;28;20870;-84
2021/05/28 06:45:24;;;;;;;7.60;6.90;;;17.10;82.20;;;;;;4904822;29;20226;-84
2021/05/28 06:47:52;;;;;;;9.07;8.17;;;16.80;82.10;;;;;;4902595;29;20213;-82
2021/05/28 06:50:20;;;;;;;7.87;7.10;;;16.60;82.00;;;;;;4912675;29;20214;-84
2021/05/28 06:52:49;;;;;;;7.73;7.03;;;16.60;82.20;;;;;;4912469;29;20671;-84
2021/05/28 06:55:17;;;;;;;8.07;7.17;;;16.50;81.90;;;;;;4910499;29;20453;-83
2021/05/28 06:57:46;;;;;;;12.37;7.13;;;16.30;82.00;;;;;;4912310;29;20214;-84
2021/05/28 07:00:15;;;;;;;8.03;6.57;;;16.10;82.50;;;;;;4908897;29;20695;-82
2021/05/28 07:02:44;;;;;;;7.57;6.87;;;16.00;82.70;;;;;;4904168;28;20941;-84
2021/05/28 07:05:14;;;;;;;8.00;7.20;;;16.00;82.40;;;;;;4909987;29;20246;-83
2021/05/28 07:07:42;;;;;;;7.60;6.90;;;16.10;82.10;;;;;;4907549;29;20580;-84
2021/05/28 07:10:12;;;;;;;7.53;6.77;;;15.70;82.30;;;;;;4903647;29;20404;-84
2021/05/28 07:12:41;;;;;;;7.83;6.90;;;15.70;82.60;;;;;;4910826;29;20206;-85
2021/05/28 07:15:12;;;;;;;9.07;6.20;;;15.60;82.30;;;;;;4912723;29;20220;-85
2021/05/28 07:17:40;;;;;;;7.83;6.43;;;15.60;82.50;;;;;;4928533;28;20217;-84
2021/05/28 07:20:11;;;;;;;8.43;7.17;;;15.50;82.20;;;;;;4911583;29;20684;-83
2021/05/28 07:22:39;;;;;;;7.73;7.00;;;15.50;82.80;;;;;;4932611;28;20202;-85
2021/05/28 07:25:09;;;;;;;7.80;7.00;;;15.40;83.00;;;;;;4910068;29;20281;-85
2021/05/28 07:27:38;;;;;;;7.90;7.10;;;15.40;83.00;;;;;;4910732;29;20206;-84
2021/05/28 07:30:08;;;;;;;8.00;7.20;;;15.30;82.80;;;;;;4931305;28;20194;-83
2021/05/28 07:32:37;;;;;;;7.90;7.10;;;15.30;83.00;;;;;;4915483;29;20251;-82
2021/05/28 07:35:07;;;;;;;8.37;7.57;;;15.30;83.10;;;;;;4911354;29;20214;-83
2021/05/28 07:37:36;;;;;;;6.73;6.13;;;15.40;83.10;;;;;;4915033;28;20218;-84
2021/05/28 07:40:07;;;;;;;8.37;6.77;;;15.60;82.80;;;;;;4914888;28;20501;-83
2021/05/28 07:42:36;;;;;;;7.00;5.90;;;15.60;82.20;;;;;;4903500;29;20265;-81
2021/05/28 07:45:07;;;;;;;6.20;5.60;;;15.80;82.20;;;;;;4888814;29;20217;-81
2021/05/28 07:47:35;;;;;;;7.07;6.27;;;16.10;82.30;;;;;;4894249;29;20212;-81
2021/05/28 07:50:05;;;;;;;5.07;4.63;;;16.60;81.90;;;;;;4893254;29;20265;-83
2021/05/28 07:52:33;;;;;;;5.50;5.00;;;17.00;81.00;;;;;;4901180;29;20214;-82
2021/05/28 07:55:02;;;;;;;6.10;5.50;;;17.20;80.40;;;;;;4896871;29;20438;-82
2021/05/28 07:57:30;;;;;;;5.60;5.10;;;17.40;80.40;;;;;;4894423;29;20210;-81
2021/05/28 07:59:58;;;;;;;4.77;4.37;;;17.50;80.10;;;;;;4894622;29;20229;-81
2021/05/28 08:02:25;;;;;;;4.67;4.27;;;17.50;79.60;;;;;;4921806;29;20387;-81
2021/05/28 08:04:54;;;;;;;4.23;3.93;;;17.40;79.70;;;;;;4897398;29;20424;-83
2021/05/28 08:07:22;;;;;;;3.47;3.17;;;17.30;79.50;;;;;;4901303;29;20215;-83
2021/05/28 08:09:50;;;;;;;3.00;2.80;;;17.40;79.60;;;;;;4893039;29;20301;-83
2021/05/28 08:12:19;;;;;;;2.90;2.70;;;17.70;78.90;;;;;;4902313;29;20420;-82
2021/05/28 08:14:47;;;;;;;3.63;3.30;;;17.80;78.70;;;;;;4901205;29;20225;-82
2021/05/28 08:17:15;;;;;;;3.53;3.23;;;18.10;78.30;;;;;;4894608;29;20327;-82
2021/05/28 08:19:43;;;;;;;4.70;3.07;;;18.20;78.00;;;;;;4893295;29;20648;-82
2021/05/28 08:22:12;;;;;;;3.50;2.90;;;18.20;77.00;;;;;;4898120;29;20202;-82
2021/05/28 08:24:40;;;;;;;3.90;3.60;;;17.90;77.80;;;;;;4904037;29;20630;-83
2021/05/28 08:27:09;;;;;;;3.87;3.13;;;17.90;77.80;;;;;;4898787;29;20221;-83
2021/05/28 08:29:38;;;;;;;5.10;3.43;;;17.80;78.00;;;;;;4900315;29;20711;-83
2021/05/28 08:32:06;;;;;;;3.90;3.60;;;17.80;78.20;;;;;;4901427;29;20214;-82
2021/05/28 08:34:34;;;;;;;4.33;3.33;;;18.00;77.90;;;;;;4908289;29;20256;-83
2021/05/28 08:37:02;;;;;;;3.27;2.60;;;18.00;77.70;;;;;;4906920;29;20301;-85
2021/05/28 08:39:30;;;;;;;3.07;2.70;;;17.80;77.00;;;;;;4906719;29;20288;-81
2021/05/28 08:41:59;;;;;;;3.57;2.87;;;17.60;77.60;;;;;;4914851;28;20237;-82
2021/05/28 08:44:28;;;;;;;2.63;2.43;;;17.60;77.10;;;;;;4927997;28;20218;-81
2021/05/28 08:46:57;;;;;;;2.83;2.60;;;17.60;76.80;;;;;;4909809;28;20299;-83
2021/05/28 08:49:26;;;;;;;2.83;2.60;;;17.50;76.90;;;;;;4906514;29;20680;-83
2021/05/28 09:13:26;;;;;;;2.57;2.10;;;18.40;75.60;;;;;;4813346;29;20908;-82
2021/05/28 09:16:09;;;;;;;2.50;2.30;;;18.60;74.90;;;;;;4870915;29;20495;-83
2021/05/28 09:18:43;;;;;;;2.90;2.70;;;18.60;74.80;;;;;;4918692;28;20253;-82
2021/05/28 09:21:13;;;;;;;2.80;2.60;;;18.10;74.60;;;;;;4926709;28;20293;-83
2021/05/28 09:23:41;;;;;;;2.87;2.63;;;18.00;75.00;;;;;;4930362;29;20210;-82
2021/05/28 09:26:10;;;;;;;2.57;2.37;;;17.60;75.30;;;;;;4918896;28;20210;-83
2021/05/28 09:28:42;;;;;;;4.17;2.40;;;17.30;75.80;;;;;;4916440;29;20211;-85
2021/05/28 09:31:14;;;;;;;2.40;2.20;;;17.30;75.60;;;;;;4918856;29;20202;-84
2021/05/28 09:33:44;;;;;;;2.80;2.27;;;17.20;75.20;;;;;;4929735;28;20221;-82
2021/05/28 09:36:18;;;;;;;2.87;2.67;;;17.30;75.10;;;;;;4910799;29;20447;-84
2021/05/28 09:39:01;;;;;;;2.40;2.20;;;17.70;75.70;;;;;;4920521;28;20515;-81
2021/05/28 09:41:45;;;;;;;2.40;2.00;;;18.00;75.10;;;;;;4911807;28;20724;-82
2021/05/28 09:44:17;;;;;;;3.40;2.20;;;18.30;75.50;;;;;;4914756;29;20210;-84
2021/05/28 09:47:02;;;;;;;2.07;1.77;;;18.80;75.20;;;;;;4916387;29;21020;-81
2021/05/28 09:49:32;;;;;;;2.23;2.10;;;19.10;74.30;;;;;;4925049;28;20220;-83
2021/05/28 09:52:06;;;;;;;2.70;2.30;;;19.10;73.50;;;;;;4928629;29;20217;-81
2021/05/28 09:54:34;;;;;;;2.07;1.97;;;19.00;74.00;;;;;;4926798;29;20297;-81
2021/05/28 09:57:03;;;;;;;1.90;1.80;;;18.70;72.50;;;;;;4923009;28;20205;-82
2021/05/28 09:59:47;;;;;;;2.50;1.70;;;18.60;72.50;;;;;;4925393;29;20432;-84
2021/05/28 10:02:25;;;;;;;2.70;1.70;;;18.50;71.80;;;;;;4918444;29;20507;-83
2021/05/28 10:04:55;;;;;;;2.10;1.90;;;18.60;72.40;;;;;;4926992;29;20243;-83
2021/05/28 10:07:25;;;;;;;2.13;2.03;;;18.70;72.10;;;;;;4910176;29;20614;-81
2021/05/28 10:09:55;;;;;;;2.50;2.30;;;18.80;72.20;;;;;;4909956;29;20745;-83
2021/05/28 10:12:26;;;;;;;4.30;2.10;;;18.70;72.60;;;;;;4912787;28;20602;-82
2021/05/28 10:14:55;;;;;;;2.07;1.90;;;18.60;72.80;;;;;;4914756;28;20304;-81
2021/05/28 10:17:23;;;;;;;2.00;1.90;;;18.40;73.10;;;;;;4909207;29;20232;-84
2021/05/28 10:19:51;;;;;;;5.10;2.60;;;18.40;73.20;;;;;;4908134;29;20212;-84
2021/05/28 10:22:21;;;;;;;2.53;1.80;;;18.60;73.70;;;;;;4909388;29;20210;-83
2021/05/28 10:24:50;;;;;;;2.17;1.97;;;18.50;72.70;;;;;;4913331;29;20491;-84
2021/05/28 10:27:23;;;;;;;2.10;1.90;;;18.40;73.30;;;;;;4905883;29;20261;-81
2021/05/28 10:29:52;;;;;;;2.70;1.83;;;18.40;72.40;;;;;;4905450;28;20526;-81
2021/05/28 10:32:22;;;;;;;2.23;2.03;;;18.30;72.40;;;;;;4906716;28;20198;-81
2021/05/28 10:35:10;;;;;;;2.20;2.00;;;17.90;72.30;;;;;;4908040;28;21036;-82
2021/05/28 10:37:40;;;;;;;3.03;1.67;;;17.70;72.70;;;;;;4902380;28;20269;-83
2021/05/28 10:40:28;;;;;;;2.13;1.70;;;17.80;72.70;;;;;;4900841;28;20263;-83
2021/05/28 10:43:04;;;;;;;1.50;1.37;;;18.10;72.70;;;;;;4904260;29;20443;-81
2021/05/28 10:46:03;;;;;;;1.80;1.70;;;18.20;71.00;;;;;;4911344;29;20347;-81
2021/05/28 10:49:11;;;;;;;1.40;1.30;;;18.40;71.60;;;;;;4909492;29;20759;-83
2021/05/28 10:51:59;;;;;;;1.80;1.70;;;18.70;71.20;;;;;;4901452;29;20570;-83
2021/05/28 10:54:31;;;;;;;2.63;1.97;;;18.80;70.90;;;;;;4921677;29;20206;-81
2021/05/28 10:57:22;;;;;;;1.50;1.40;;;18.80;71.20;;;;;;4909312;29;20394;-84
2021/05/28 10:59:54;;;;;;;2.43;2.23;;;18.80;71.40;;;;;;4905473;29;20210;-83
2021/05/28 11:02:45;;;;;;;2.33;2.00;;;18.70;71.50;;;;;;4906785;28;20261;-82
2021/05/28 11:05:15;;;;;;;2.30;2.00;;;18.40;71.90;;;;;;4904872;28;20632;-82
2021/05/28 11:07:45;;;;;;;2.07;1.97;;;18.30;72.60;;;;;;4901439;28;20547;-82
2021/05/28 11:10:24;;;;;;;2.50;1.70;;;18.30;72.20;;;;;;4914036;28;20679;-81
2021/05/28 11:12:52;;;;;;;1.50;1.40;;;18.30;71.50;;;;;;4902630;28;20213;-82
2021/05/28 11:15:27;;;;;;;1.73;1.63;;;18.40;72.30;;;;;;4902552;29;20210;-83
2021/05/28 11:18:00;;;;;;;2.23;1.60;;;18.50;71.40;;;;;;4897926;29;20718;-82
2021/05/28 11:20:33;;;;;;;1.37;1.00;;;18.60;71.80;;;;;;4904566;28;20658;-82
2021/05/28 11:23:08;;;;;;;1.10;1.10;;;18.60;69.20;;;;;;4898574;29;20586;-81
2021/05/28 11:25:46;;;;;;;1.10;1.00;;;18.60;69.50;;;;;;4901979;29;20232;-82
2021/05/28 11:28:15;;;;;;;1.37;1.20;;;18.80;69.30;;;;;;4896949;29;20201;-82
2021/05/28 11:30:48;;;;;;;1.80;1.10;;;19.00;69.40;;;;;;4901369;29;20281;-84
2021/05/28 11:33:55;;;;;;;2.00;1.90;;;19.10;69.90;;;;;;4904752;29;20219;-81
2021/05/28 11:36:50;;;;;;;2.30;2.10;;;19.00;71.20;;;;;;4876643;29;20210;-81
2021/05/28 11:39:23;;;;;;;2.80;2.17;;;18.70;72.70;;;;;;4878032;29;20214;-81
2021/05/28 11:42:09;;;;;;;2.53;2.10;;;18.50;73.40;;;;;;4882799;29;20255;-82
2021/05/28 11:44:37;;;;;;;2.97;1.70;;;18.40;72.80;;;;;;4891833;29;20215;-83
2021/05/28 11:47:07;;;;;;;2.17;1.40;;;18.60;73.20;;;;;;4877838;29;20233;-83
2021/05/28 11:49:37;;;;;;;2.17;1.40;;;18.80;72.50;;;;;;4904727;29;20282;-80
2021/05/28 11:52:10;;;;;;;1.60;1.50;;;18.80;71.40;;;;;;4899925;29;20346;-84
2021/05/28 11:54:39;;;;;;;1.30;1.20;;;18.60;71.50;;;;;;4901312;29;20492;-81
2021/05/28 11:57:09;;;;;;;1.67;1.10;;;18.50;71.60;;;;;;4894534;29;20210;-83
2021/05/28 11:59:58;;;;;;;0.90;0.90;;;18.40;71.80;;;;;;4893056;29;20286;-82
2021/05/28 12:02:43;;;;;;;1.13;1.10;;;18.20;71.10;;;;;;4864925;29;20618;-84
2021/05/28 12:05:18;;;;;;;1.20;1.10;;;17.90;71.90;;;;;;4881503;29;20677;-81
2021/05/28 12:07:48;;;;;;;2.37;1.20;;;17.40;73.10;;;;;;4898711;29;20226;-82
2021/05/28 12:10:16;;;;;;;2.30;1.00;;;17.20;73.10;;;;;;4902806;29;20848;-82
2021/05/28 12:12:59;;;;;;;1.13;1.03;;;17.20;73.50;;;;;;4918528;28;20304;-81
2021/05/28 12:15:30;;;;;;;1.63;0.90;;;17.30;72.70;;;;;;4920157;29;20228;-84
2021/05/28 12:18:01;;;;;;;0.87;0.87;;;17.40;71.70;;;;;;4909584;28;20214;-83
2021/05/28 12:20:33;;;;;;;0.80;0.80;;;17.60;71.70;;;;;;4910007;29;20623;-81
2021/05/28 12:23:12;;;;;;;1.57;0.90;;;18.10;70.90;;;;;;4913486;29;20221;-86
2021/05/28 12:25:46;;;;;;;1.30;1.20;;;18.70;70.60;;;;;;4913758;28;20209;-81
2021/05/28 12:28:26;;;;;;;1.20;1.00;;;19.40;70.20;;;;;;4935620;28;20858;-81
2021/05/28 12:31:04;;;;;;;1.53;1.00;;;19.90;69.80;;;;;;4909721;29;20202;-84
2021/05/28 12:33:34;;;;;;;1.47;1.30;;;20.10;69.70;;;;;;4915089;28;20575;-82
2021/05/28 12:36:05;;;;;;;1.67;1.20;;;20.30;69.20;;;;;;4906407;29;20225;-81
2021/05/28 12:38:40;;;;;;;1.10;1.00;;;20.50;68.70;;;;;;4906962;28;20226;-83
2021/05/28 12:41:10;;;;;;;1.37;1.27;;;20.40;66.40;;;;;;4908552;28;20237;-83
2021/05/28 12:43:42;;;;;;;1.00;1.00;;;20.30;67.10;;;;;;4908273;29;20392;-82
2021/05/28 12:46:21;;;;;;;0.80;0.80;;;20.30;67.20;;;;;;4909579;29;20500;-82
2021/05/28 12:48:52;;;;;;;1.13;1.03;;;20.30;65.40;;;;;;4911704;29;20304;-84
2021/05/28 12:51:28;;;;;;;1.20;1.20;;;20.10;65.00;;;;;;4909895;29;20214;-83
2021/05/28 12:53:58;;;;;;;1.00;1.00;;;20.10;65.40;;;;;;4918362;28;20419;-81
2021/05/28 12:56:28;;;;;;;2.10;1.17;;;20.30;66.10;;;;;;4915202;29;20234;-82
2021/05/28 12:58:58;;;;;;;1.80;1.20;;;20.40;65.90;;;;;;4909670;28;20209;-83
2021/05/28 13:01:28;;;;;;;1.53;1.43;;;20.40;65.40;;;;;;4919959;28;20289;-85
2021/05/28 13:04:01;;;;;;;2.27;1.37;;;20.30;65.20;;;;;;4921067;29;20206;-85
2021/05/28 13:06:35;;;;;;;1.67;1.17;;;20.10;66.10;;;;;;4906643;29;20767;-84
2021/05/28 13:09:19;;;;;;;1.27;1.20;;;20.20;65.90;;;;;;4911312;28;20221;-82
2021/05/28 13:11:59;;;;;;;1.40;1.30;;;20.10;66.00;;;;;;4912310;29;20241;-84
2021/05/28 13:14:31;;;;;;;1.40;1.30;;;20.00;66.00;;;;;;4912931;29;20225;-82
2021/05/28 13:17:18;;;;;;;1.63;1.53;;;20.00;65.50;;;;;;4910487;28;20894;-81
2021/05/28 13:19:47;;;;;;;1.90;1.67;;;20.00;65.70;;;;;;4910246;29;20994;-81
2021/05/28 13:22:29;;;;;;;2.73;1.70;;;19.90;65.60;;;;;;4911845;29;20231;-83
2021/05/28 13:25:15;;;;;;;1.50;1.40;;;19.90;66.00;;;;;;4913447;29;20307;-81
2021/05/28 13:27:44;;;;;;;1.27;1.27;;;20.10;65.30;;;;;;4916809;28;20458;-82